Flight Track Log - Related Links

Times and Time Zones

All times are in EDT time to prevent confusion due to time zone crossing. See the TCF6003 flight status page for this flight to view local times or setup timezone preferences in your user account.

Time Position Orientation Groundspeed Altitude Reporting Facility
EDT Latitude Longitude Course Direction KTS MPH feet Rate Location/Type
Wed 06:49:53 PM 40.7614 -73.8369 304° West 148 170 1,600  Level New York Center
Wed 06:50:51 PM 40.7794 -73.7828 66° East 169 194 3,200 2,186 Climbing New York Center
Wed 06:51:51 PM 40.8519 -73.7969 352° North 192 221 5,900 2,727 Climbing New York Center
Wed 06:52:00 PM 40.9755 -74.3176 304° West  Level FlightAware Approximate
Wed 06:52:52 PM 40.9158 -73.8300 339° North 265 305 8,700  Level New York Center
Wed 06:53:00 PM 41.0275 -74.4392 299° West  Level FlightAware Approximate
Wed 06:53:52 PM 40.9783 -73.9100 316° Northwest 270 311 11,300  Level New York Center
Wed 06:54:00 PM 41.0802 -74.5604 304° West  Level FlightAware Approximate
Wed 06:54:52 PM 41.0261 -73.9892 309° West 298 343 13,400  Level New York Center
Wed 06:55:00 PM 41.1326 -74.6818 304° West  Level FlightAware Approximate
Wed 06:55:52 PM 41.0478 -74.1111 283° West 312 359 15,800  Level New York Center
Wed 06:56:53 PM 41.0672 -74.2306 282° West 333 383 15,900 50 Climbing New York Center
Wed 06:57:53 PM 41.0844 -74.3525 281° West 339 390 15,900  Level New York Center
Wed 06:58:51 PM 41.1036 -74.4719 282° West 339 390 15,900 712 Level New York Center
Wed 06:59:51 PM 41.1206 -74.5911 281° West 339 390 17,300 1,636 Climbing New York Center
Wed 07:00:52 PM 41.1422 -74.6969 285° West 334 384 19,200 1,820 Climbing New York Center
Wed 07:01:53 PM 41.1922 -74.8158 299° West 343 395 21,000 1,934 Climbing New York Center
Wed 07:02:53 PM 41.2442 -74.9431 299° West 371 427 23,100 1,815 Climbing New York Center
Wed 07:03:52 PM 41.2981 -75.0681 300° West 385 443 24,600 1,462 Climbing New York Center
Wed 07:04:52 PM 41.3536 -75.1986 300° West 395 455 26,000 1,300 Climbing New York Center
Wed 07:05:52 PM 41.4108 -75.3325 300° West 408 470 27,200 1,289 Climbing New York Center
Wed 07:06:53 PM 41.4681 -75.4692 299° West 415 478 28,600 1,388 Climbing New York Center
Wed 07:07:53 PM 41.5103 -75.6106 292° West 415 478 30,000 712 Climbing New York Center
Wed 07:08:51 PM 41.5522 -75.7550 291° West 415 478 30,000 50 Level New York Center
Wed 07:09:52 PM 41.5961 -75.8997 292° West 420 483 30,100 843 Climbing New York Center
Wed 07:10:52 PM 41.6339 -76.0358 290° West 413 475 31,700 958 Climbing New York Center
Wed 07:11:51 PM 41.6731 -76.1806 290° West 408 470 32,000 150 Climbing New York Center
Wed 07:12:52 PM 41.7144 -76.3256 291° West 414 476 32,000  Level New York Center
Wed 07:14:38 PM 41.7861 -76.5867 290° West 419 482 32,000  Level Cleveland Center
Wed 07:15:38 PM 41.8286 -76.7317 292° West 419 482 32,000  Level Cleveland Center
Wed 07:16:38 PM 41.8692 -76.8825 290° West 424 488 32,000  Level Cleveland Center
Wed 07:17:38 PM 41.9094 -77.0339 290° West 424 488 32,000  Level Cleveland Center
Wed 07:18:38 PM 41.9539 -77.1961 290° West 424 488 32,000  Level Cleveland Center
Wed 07:19:39 PM 41.9958 -77.3475 290° West 424 488 32,000  Level Cleveland Center
Wed 07:20:38 PM 42.0375 -77.5022 290° West 429 494 32,000 454 Level Cleveland Center
Wed 07:21:38 PM 42.0769 -77.6542 289° West 434 499 32,900 1,000 Climbing Cleveland Center
Wed 07:22:38 PM 42.1161 -77.7978 290° West 428 493 34,000 550 Climbing Cleveland Center
Wed 07:23:38 PM 42.1528 -77.9447 289° West 422 486 34,000  Level Cleveland Center
Wed 07:24:38 PM 42.1892 -78.0833 290° West 412 474 34,000  Level Cleveland Center
Wed 07:25:38 PM 42.2278 -78.2250 290° West 402 463 34,000  Level Cleveland Center
Wed 07:26:38 PM 42.2617 -78.3611 289° West 397 457 34,000  Level Cleveland Center
Wed 07:27:38 PM 42.2956 -78.4975 289° West 397 457 34,000  Level Cleveland Center
Wed 07:28:38 PM 42.3292 -78.6311 289° West 386 444 34,000  Level Cleveland Center
Wed 07:29:38 PM 42.3647 -78.7733 289° West 386 444 34,000  Level Cleveland Center
Wed 07:30:38 PM 42.3956 -78.8878 290° West 392 451 34,000  Level Cleveland Center
Wed 07:31:38 PM 42.4333 -79.0417 288° West 392 451 34,000  Level Cleveland Center
Wed 07:32:38 PM 42.4728 -79.2011 289° West 405 466 34,000  Level Cleveland Center
Wed 07:33:38 PM 42.4975 -79.3469 283° West 405 466 34,000  Level Cleveland Center
Wed 07:34:38 PM 42.5031 -79.4933 273° West 399 459 34,000  Level Cleveland Center
Wed 07:35:38 PM 42.5128 -79.6394 275° West 394 453 34,000  Level Cleveland Center
Wed 07:36:38 PM 42.5158 -79.7861 272° West 389 448 34,000  Level Cleveland Center
Wed 07:37:38 PM 42.5250 -79.9297 275° West 389 448 34,000  Level Cleveland Center
Wed 07:38:38 PM 42.5258 -80.0789 270° West 389 448 34,000  Level Cleveland Center
Wed 07:39:38 PM 42.5347 -80.2253 275° West 384 442 34,000  Level Cleveland Center
Wed 07:40:39 PM 42.5414 -80.3719 274° West 389 448 34,000  Level Cleveland Center
Wed 07:41:38 PM 42.5456 -80.5211 272° West 389 448 34,000  Level Cleveland Center
Wed 07:42:38 PM 42.5539 -80.6678 274° West 394 453 34,000  Level Cleveland Center
Wed 07:43:38 PM 42.5581 -80.8144 272° West 394 453 34,000  Level Cleveland Center
Wed 07:44:38 PM 42.5639 -80.9608 273° West 394 453 34,000  Level Cleveland Center
Wed 07:45:38 PM 42.5675 -81.1075 272° West 394 453 34,000  Level Cleveland Center
Wed 07:46:38 PM 42.5708 -81.2372 272° West 384 442 34,000  Level Cleveland Center
Wed 07:47:38 PM 42.5761 -81.3839 273° West 389 448 34,000  Level Cleveland Center
Wed 07:48:38 PM 42.5958 -81.5281 281° West 389 448 34,000  Level Cleveland Center
Wed 07:49:38 PM 42.6217 -81.6781 283° West 399 459 34,000  Level Cleveland Center
Wed 07:50:39 PM 42.6475 -81.8194 284° West 399 459 34,000  Level Cleveland Center
Wed 07:51:38 PM 42.6708 -81.9639 282° West 394 453 34,000  Level Cleveland Center
Wed 07:52:38 PM 42.6961 -82.1086 283° West 394 453 34,000  Level Cleveland Center
Wed 07:53:38 PM 42.7211 -82.2506 284° West 394 453 34,000  Level Cleveland Center
Wed 07:54:38 PM 42.7461 -82.3983 283° West 394 453 34,000  Level Cleveland Center
Wed 07:55:38 PM 42.7708 -82.5433 283° West 394 453 34,000  Level Cleveland Center
Wed 07:56:38 PM 42.7953 -82.6856 283° West 394 453 34,000  Level Cleveland Center
Wed 07:57:38 PM 42.8197 -82.8336 283° West 394 453 34,000 -400 Level Cleveland Center
Wed 07:58:38 PM 42.8417 -82.9817 281° West 394 453 33,200 -900 Descending Cleveland Center
Wed 07:59:38 PM 42.8656 -83.1297 282° West 394 453 32,200 -600 Descending Cleveland Center
Wed 08:00:38 PM 42.8894 -83.2753 283° West 394 453 32,000 -100 Descending Cleveland Center
Wed 08:01:38 PM 42.9131 -83.4208 283° West 394 453 32,000  Level Cleveland Center
Wed 08:02:38 PM 42.9361 -83.5750 282° West 399 459 32,000  Level Cleveland Center
Wed 08:03:38 PM 42.9614 -83.7239 283° West 399 459 32,000  Level Cleveland Center
Wed 08:04:38 PM 42.9781 -83.8722 279° West 399 459 32,000  Level Cleveland Center
Wed 08:05:38 PM 42.9939 -84.0408 277° West 405 466 32,000  Level Cleveland Center
Wed 08:06:38 PM 43.0064 -84.1861 277° West 405 466 32,000  Level Cleveland Center
Wed 08:07:38 PM 43.0211 -84.3092 279° West 405 466 32,000  Level Cleveland Center
Wed 08:08:38 PM 43.0350 -84.4728 277° West 404 465 32,000  Level Chicago Center
Wed 08:09:40 PM 43.0500 -84.6253 278° West 408 470 32,000  Level Chicago Center
Wed 08:10:42 PM 43.0633 -84.7794 277° West 410 472 32,000  Level Chicago Center
Wed 08:11:44 PM 43.0803 -84.9625 277° West 407 468 32,000  Level Chicago Center
Wed 08:12:46 PM 43.0925 -85.1147 276° West 404 465 32,000  Level Chicago Center
Wed 08:13:48 PM 43.1056 -85.2639 277° West 400 460 32,000  Level Chicago Center
Wed 08:14:50 PM 43.1178 -85.4144 276° West 399 459 32,000  Level Chicago Center
Wed 08:15:52 PM 43.1306 -85.5664 277° West 402 463 32,000  Level Chicago Center
Wed 08:16:54 PM 43.1428 -85.7172 276° West 404 465 32,000 -293 Level Chicago Center
Wed 08:17:55 PM 43.1575 -85.8989 276° West 407 468 31,400 -1,024 Descending Chicago Center
Wed 08:18:57 PM 43.1678 -86.0506 275° West 412 474 29,900 -1,887 Descending Chicago Center
Wed 08:19:59 PM 43.1669 -86.1981 270° West 398 458 27,500 -2,274 Descending Chicago Center
Wed 08:21:01 PM 43.1644 -86.3383 269° West 376 433 25,200 -2,419 Descending Chicago Center
Wed 08:22:03 PM 43.1631 -86.5075 269° West 370 426 22,500 -2,371 Descending Chicago Center
Wed 08:23:05 PM 43.1600 -86.6439 268° West 362 417 20,300 -2,129 Descending Chicago Center
Wed 08:24:07 PM 43.1572 -86.7756 268° West 350 403 18,100 -2,032 Descending Chicago Center
Wed 08:25:09 PM 43.1547 -86.9025 268° West 339 390 16,100 -1,935 Descending Chicago Center
Wed 08:26:11 PM 43.1511 -87.0289 268° West 335 386 14,100 -1,210 Descending Chicago Center
Wed 08:27:13 PM 43.1267 -87.1333 252° West 290 334 13,600 -1,403 Descending Chicago Center
Wed 08:28:15 PM 43.0989 -87.2503 252° West 272 313 11,200 -2,129 Descending Chicago Center
Wed 08:29:17 PM 43.0767 -87.3453 252° West 266 306 9,200 -1,790 Descending Chicago Center
Wed 08:30:19 PM 43.0522 -87.4472 252° West 267 307 7,500 -1,548 Descending Chicago Center
Wed 08:31:21 PM 43.0303 -87.5375 252° West 255 293 6,000 -1,355 Descending Chicago Center
Wed 08:32:23 PM 43.0078 -87.6264 251° West 249 287 4,700 -1,258 Descending Chicago Center

Login

Don't have an account? Register now (free) for customized features, flight alerts, and more!